Time;durP1;ratioP1;P1;durP2;ratioP2;P2;SDS_P1;SDS_P2;PMS_P1;PMS_P2;Temp;Humidity;BMP_temperature;BMP_pressure;BME280_temperature;BME280_humidity;BME280_pressure;Samples;Min_cycle;Max_cycle;Signal;HPM_P1;HPM_P2
2023/01/23 00:04:24;;;;;;;153.55;32.65;;;;;;;5.39;93.67;98314.13;10330069;28;20065;-50
2023/01/23 00:09:23;;;;;;;159.38;44.20;;;;;;;5.28;94.69;98309.56;10326147;28;20021;-51
2023/01/23 00:14:22;;;;;;;114.50;30.90;;;;;;;5.26;94.88;98312.94;10329568;28;20034;-49
2023/01/23 00:19:20;;;;;;;104.10;30.15;;;;;;;5.39;94.65;98307.31;10331031;28;20397;-49
2023/01/23 00:24:20;;;;;;;144.82;33.83;;;;;;;5.16;94.86;98277.44;10331211;28;20041;-49
2023/01/23 00:29:18;;;;;;;183.02;39.58;;;;;;;5.35;94.67;98295.19;10330836;28;20125;-49
2023/01/23 00:34:17;;;;;;;103.65;32.15;;;;;;;5.43;94.72;98308.25;10331845;28;20029;-50
2023/01/23 00:39:19;;;;;;;99.65;28.88;;;;;;;5.34;94.57;98329.44;10331558;28;20032;-49
2023/01/23 00:44:18;;;;;;;76.57;25.95;;;;;;;5.17;95.10;98326.38;10334022;28;20079;-49
2023/01/23 00:49:17;;;;;;;115.00;26.83;;;;;;;5.10;95.36;98325.34;10338755;28;20128;-50
2023/01/23 00:54:18;;;;;;;140.07;29.42;;;;;;;5.14;95.52;98326.31;10327678;28;20037;-48
2023/01/23 00:59:17;;;;;;;307.08;57.60;;;;;;;5.19;96.52;98324.75;10332741;28;20072;-49
2023/01/23 01:04:16;;;;;;;114.68;33.95;;;;;;;5.32;95.97;98332.00;10320059;28;20029;-48
2023/01/23 01:09:15;;;;;;;145.60;29.83;;;;;;;5.31;95.79;98343.09;10332163;28;20037;-48
2023/01/23 01:14:14;;;;;;;262.35;35.53;;;;;;;5.31;95.83;98355.09;10331545;28;20075;-50
2023/01/23 01:19:16;;;;;;;189.27;35.33;;;;;;;5.21;95.80;98353.97;10332506;28;20067;-50
2023/01/23 01:24:15;;;;;;;140.57;30.30;;;;;;;5.08;96.07;98326.97;10329457;28;20068;-48
2023/01/23 01:29:14;;;;;;;133.77;30.38;;;;;;;5.13;96.88;98358.88;10328080;28;20045;-49
2023/01/23 01:34:13;;;;;;;94.55;27.27;;;;;;;5.23;96.67;98352.31;10326354;28;20051;-50
2023/01/23 01:39:12;;;;;;;72.10;23.98;;;;;;;5.30;96.17;98363.66;10330447;28;20075;-48
2023/01/23 01:44:17;;;;;;;48.80;19.58;;;;;;;5.39;95.63;98363.03;10327947;28;20036;-49
2023/01/23 01:49:23;;;;;;;48.83;21.02;;;;;;;5.37;94.93;98360.44;10322003;28;20121;-49
2023/01/23 01:54:34;;;;;;;54.58;20.48;;;;;;;5.38;94.49;98377.63;10326804;28;20570;-49
2023/01/23 01:59:49;;;;;;;47.88;20.48;;;;;;;5.01;94.47;98308.75;10325266;28;20065;-48
2023/01/23 02:04:54;;;;;;;71.13;20.13;;;;;;;5.40;94.74;98375.97;10340160;28;20065;-48
2023/01/23 02:09:53;;;;;;;317.90;96.75;;;;;;;5.38;94.80;98372.47;10329664;28;20445;-50
2023/01/23 02:14:52;;;;;;;;;;;;;;;5.28;95.31;98373.91;10328924;28;20088;-48
2023/01/23 02:20:10;;;;;;;200.18;75.65;;;;;;;5.39;95.50;98376.81;10326992;28;19913;-48
2023/01/23 02:25:26;;;;;;;118.90;21.70;;;;;;;5.58;94.80;98365.34;10326686;28;20075;-50
2023/01/23 02:30:25;;;;;;;89.97;23.42;;;;;;;5.53;93.91;98372.03;10329115;28;20072;-51
2023/01/23 02:35:30;;;;;;;76.95;21.90;;;;;;;5.43;94.76;98359.72;10327433;28;20041;-50
2023/01/23 02:40:35;;;;;;;59.35;19.48;;;;;;;5.48;94.03;98366.75;10328564;28;20065;-50
2023/01/23 02:45:35;;;;;;;85.78;20.48;;;;;;;5.48;94.56;98366.75;10326955;28;20073;-47
2023/01/23 02:50:34;;;;;;;101.05;21.83;;;;;;;5.54;94.79;98372.09;10326949;28;20085;-49
2023/01/23 02:55:33;;;;;;;;;;;;;;;5.59;94.59;98379.94;10328230;28;20064;-49
2023/01/23 03:00:32;;;;;;;49.72;21.10;;;;;;;5.55;94.39;98397.03;10325761;28;19956;-48
2023/01/23 03:05:31;;;;;;;47.55;21.65;;;;;;;5.57;94.24;98378.16;10304458;28;20037;-48
2023/01/23 03:10:30;;;;;;;32.08;15.90;;;;;;;5.68;94.46;98387.06;10313729;28;20045;-48
2023/01/23 03:15:31;;;;;;;25.70;16.50;;;;;;;5.72;93.34;98388.91;10326604;28;20065;-49
2023/01/23 03:20:38;;;;;;;35.22;20.52;;;;;;;5.78;92.83;98358.16;10340213;28;20068;-49
2023/01/23 03:25:42;;;;;;;33.28;20.50;;;;;;;5.82;92.47;98377.16;10325563;28;20073;-50
2023/01/23 03:30:41;;;;;;;26.75;15.75;;;;;;;5.82;91.98;98380.59;10327177;28;20085;-47
2023/01/23 03:35:40;;;;;;;32.33;19.38;;;;;;;5.84;92.11;98376.38;10326621;28;20037;-49
2023/01/23 03:45:58;;;;;;;63.95;18.05;;;;;;;5.72;91.00;98382.03;10324129;28;20465;-50
2023/01/23 03:50:57;;;;;;;54.22;18.40;;;;;;;5.40;92.70;98378.53;10324882;28;20068;-50
2023/01/23 03:55:56;;;;;;;71.18;20.10;;;;;;;5.20;93.25;98347.06;10309961;28;20050;-48
2023/01/23 04:00:55;;;;;;;46.58;19.40;;;;;;;5.41;93.91;98380.28;10317490;28;20481;-51
2023/01/23 04:05:56;;;;;;;47.80;17.80;;;;;;;5.52;93.46;98384.03;10334171;28;20057;-48
2023/01/23 04:11:02;;;;;;;46.78;17.77;;;;;;;5.53;93.72;98382.31;10334415;28;20065;-50
2023/01/23 04:16:03;;;;;;;46.63;17.02;;;;;;;5.51;93.58;98373.72;10334571;28;20065;-48
2023/01/23 04:21:02;;;;;;;41.90;18.02;;;;;;;5.65;93.88;98394.69;10333180;28;20461;-51
2023/01/23 04:26:01;;;;;;;49.67;19.00;;;;;;;5.48;93.29;98369.31;10330655;28;20432;-50
2023/01/23 04:31:00;;;;;;;39.63;17.02;;;;;;;5.75;93.94;98399.28;10334310;28;20073;-48
2023/01/23 04:36:01;;;;;;;40.13;17.95;;;;;;;5.84;93.16;98403.81;10333237;28;20045;-47
2023/01/23 04:41:00;;;;;;;37.63;17.95;;;;;;;5.81;92.09;98398.56;10331912;28;20064;-48
2023/01/23 04:45:59;;;;;;;39.58;18.98;;;;;;;5.85;93.20;98406.44;10332394;28;20041;-51
2023/01/23 04:50:57;;;;;;;34.97;17.35;;;;;;;5.74;91.92;98402.66;10331169;28;20411;-51
2023/01/23 04:55:56;;;;;;;32.03;15.57;;;;;;;5.64;92.05;98418.69;10332554;28;20033;-48
2023/01/23 05:01:04;;;;;;;31.17;16.65;;;;;;;5.50;93.03;98419.16;10332772;28;20029;-50
2023/01/23 05:06:03;;;;;;;35.17;16.70;;;;;;;5.27;92.77;98363.56;10330154;28;20061;-48
2023/01/23 05:11:02;;;;;;;;;;;;;;;5.73;92.75;98432.69;10328944;28;20072;-51
2023/01/23 05:16:01;;;;;;;39.38;21.15;;;;;;;5.64;92.38;98426.41;10333270;28;20078;-50
2023/01/23 05:21:00;;;;;;;38.97;19.52;;;;;;;5.61;92.37;98452.09;10330992;28;20132;-49
2023/01/23 05:25:59;;;;;;;41.70;21.05;;;;;;;5.70;92.32;98447.22;10331889;28;20129;-49
2023/01/23 05:30:58;;;;;;;53.97;29.60;;;;;;;5.70;91.89;98452.38;10331309;28;20076;-50
2023/01/23 05:35:59;;;;;;;49.65;28.10;;;;;;;5.75;92.18;98456.81;10330344;28;20045;-50
2023/01/23 05:40:58;;;;;;;41.80;19.75;;;;;;;5.66;91.76;98443.66;10328330;28;20530;-50
2023/01/23 05:46:00;;;;;;;53.28;26.23;;;;;;;5.75;92.73;98463.66;10325197;28;20424;-49
2023/01/23 05:51:02;;;;;;;50.95;26.23;;;;;;;5.62;92.56;98456.41;10325270;28;20065;-48
2023/01/23 05:56:06;;;;;;;54.65;27.23;;;;;;;5.56;92.57;98464.81;10329199;28;20100;-50
2023/01/23 06:01:05;;;;;;;61.20;29.30;;;;;;;5.56;92.36;98472.53;10327359;28;20065;-48
2023/01/23 06:06:04;;;;;;;73.55;31.17;;;;;;;5.39;92.94;98435.09;10327075;28;20049;-49
2023/01/23 06:11:03;;;;;;;;;;;;;;;5.79;92.42;98488.69;10327119;28;20060;-50
2023/01/23 06:16:02;;;;;;;65.15;31.05;;;;;;;5.88;92.11;98498.38;10361182;28;19982;-48
2023/01/23 06:21:01;;;;;;;57.00;28.02;;;;;;;5.51;91.33;98445.78;10327716;28;20072;-48
2023/01/23 06:26:01;;;;;;;56.83;27.13;;;;;;;5.75;91.72;98502.28;10326485;28;20095;-49
2023/01/23 06:31:02;;;;;;;53.55;26.75;;;;;;;5.97;92.50;98514.97;10314817;28;20073;-50
2023/01/23 06:36:04;;;;;;;54.35;27.75;;;;;;;5.96;92.00;98502.06;10326703;28;20073;-49
2023/01/23 06:41:03;;;;;;;62.38;32.20;;;;;;;6.09;92.16;98511.88;10326548;28;20057;-49
2023/01/23 06:46:02;;;;;;;65.72;31.35;;;;;;;6.22;91.33;98520.84;10327338;28;20068;-49
2023/01/23 06:51:01;;;;;;;63.22;28.27;;;;;;;5.96;90.67;98461.69;10327330;28;20041;-49
2023/01/23 06:56:06;;;;;;;63.28;29.58;;;;;;;6.16;90.72;98500.94;10328344;28;20072;-47
2023/01/23 07:01:16;;;;;;;61.63;29.70;;;;;;;6.33;90.62;98523.72;10319253;28;20471;-50
2023/01/23 07:06:15;;;;;;;79.93;44.65;;;;;;;6.48;90.84;98541.31;10305176;28;20556;-50
2023/01/23 07:11:15;;;;;;;142.45;82.38;;;;;;;6.52;90.92;98536.28;10322671;28;20065;-50
2023/01/23 07:16:14;;;;;;;65.82;37.78;;;;;;;6.54;89.91;98541.50;10323398;28;20120;-48
2023/01/23 07:21:13;;;;;;;56.60;30.23;;;;;;;6.30;89.79;98495.28;10325290;28;20084;-48
2023/01/23 07:26:12;;;;;;;52.72;28.42;;;;;;;6.74;89.79;98527.41;10326820;28;20049;-50
2023/01/23 07:31:12;;;;;;;47.55;27.75;;;;;;;6.72;88.85;98548.84;10325345;28;20412;-48
2023/01/23 07:36:13;;;;;;;43.15;27.35;;;;;;;6.71;88.77;98560.88;10333847;28;20060;-48
2023/01/23 07:41:12;;;;;;;49.42;29.63;;;;;;;6.72;88.52;98535.94;10334178;28;20069;-50
2023/01/23 07:46:11;;;;;;;61.97;35.05;;;;;;;6.89;88.34;98539.88;10335359;28;20525;-49
2023/01/23 07:51:10;;;;;;;53.78;30.52;;;;;;;6.86;88.33;98524.28;10334712;28;20037;-49
2023/01/23 07:56:09;;;;;;;67.20;37.38;;;;;;;7.06;87.74;98548.03;10336108;28;20073;-51
2023/01/23 08:01:09;;;;;;;64.97;37.30;;;;;;;7.10;87.31;98551.56;10330735;28;20021;-50
2023/01/23 08:06:08;;;;;;;69.32;40.53;;;;;;;6.99;87.49;98546.13;10333117;28;20497;-49
2023/01/23 08:11:10;;;;;;;63.20;35.03;;;;;;;6.93;87.67;98564.88;10333340;28;20424;-48
2023/01/23 08:16:09;;;;;;;62.72;35.63;;;;;;;7.07;86.61;98577.28;10334106;28;20096;-48
2023/01/23 08:21:09;;;;;;;70.72;40.38;;;;;;;7.11;86.20;98573.97;10333287;28;20138;-48
2023/01/23 08:26:10;;;;;;;68.97;40.55;;;;;;;7.20;86.33;98569.91;10328278;28;20124;-48
2023/01/23 08:31:10;;;;;;;73.72;41.30;;;;;;;7.19;86.67;98582.75;10327293;28;20077;-51
2023/01/23 08:36:12;;;;;;;69.45;39.28;;;;;;;7.36;85.85;98567.72;10326526;28;20079;-49
2023/01/23 08:41:11;;;;;;;66.10;38.60;;;;;;;7.53;85.64;98574.19;10325029;28;20112;-50
2023/01/23 08:46:10;;;;;;;;;;;;;;;7.79;83.27;98573.94;10330890;28;20088;-50
2023/01/23 08:51:11;;;;;;;73.80;42.27;;;;;;;7.82;84.34;98553.34;10324745;28;20008;-48
2023/01/23 08:56:19;;;;;;;71.53;45.72;;;;;;;8.34;83.60;98580.34;10329957;28;20099;-49
2023/01/23 09:01:23;;;;;;;45.13;29.38;;;;;;;8.58;80.20;98567.03;10323430;28;20053;-48
2023/01/23 09:06:22;;;;;;;53.05;32.83;;;;;;;8.67;78.46;98571.53;10322626;28;20063;-48
2023/01/23 09:11:22;;;;;;;;;;;;;;;8.59;79.27;98567.91;10328841;28;20071;-48
2023/01/23 09:16:21;;;;;;;;;;;;;;;8.61;76.99;98568.81;10327278;28;20356;-48
2023/01/23 09:21:21;;;;;;;42.08;26.92;;;;;;;8.52;77.76;98574.66;10326892;28;20305;-50
2023/01/23 09:26:20;;;;;;;32.08;21.25;;;;;;;8.22;78.00;98577.47;10323030;28;20072;-47
2023/01/23 09:31:19;;;;;;;34.13;22.75;;;;;;;8.05;78.73;98539.22;10328929;28;20076;-49
2023/01/23 09:36:18;;;;;;;48.63;31.85;;;;;;;8.18;79.75;98545.53;10321182;28;20042;-48
2023/01/23 09:41:22;;;;;;;52.42;34.42;;;;;;;8.46;79.30;98554.72;10317374;28;20140;-49
2023/01/23 09:46:52;;;;;;;44.63;29.77;;;;;;;8.46;77.32;98559.91;10321868;28;20118;-50
2023/01/23 09:51:58;;;;;;;62.85;44.63;;;;;;;8.72;77.65;98568.16;10324752;28;20132;-50
2023/01/23 09:57:01;;;;;;;62.70;42.78;;;;;;;8.88;78.19;98564.16;10327127;28;20064;-50
2023/01/23 10:02:00;;;;;;;80.50;49.95;;;;;;;9.07;77.53;98551.56;10323915;28;20544;-48
2023/01/23 10:07:08;;;;;;;45.95;37.20;;;;;;;8.33;74.81;98458.75;10321590;28;20527;-49
2023/01/23 10:12:33;;;;;;;23.85;17.08;;;;;;;8.92;74.58;98558.19;10323631;28;20137;-51
2023/01/23 10:17:46;;;;;;;24.77;16.70;;;;;;;8.96;74.84;98559.13;10322792;28;20057;-48
2023/01/23 10:22:53;;;;;;;21.63;15.10;;;;;;;9.05;74.83;98550.66;10330157;28;20064;-48
2023/01/23 10:28:01;;;;;;;15.48;11.23;;;;;;;8.92;74.50;98542.66;10318757;28;20120;-48
2023/01/23 10:33:13;;;;;;;122.40;63.60;;;;;;;8.77;75.84;98537.22;10325566;28;20129;-48
2023/01/23 10:38:43;;;;;;;19.45;13.02;;;;;;;8.80;76.00;98532.06;10319341;28;20083;-50
2023/01/23 10:43:50;;;;;;;19.85;14.23;;;;;;;8.88;75.97;98534.81;10316737;28;20532;-48
2023/01/23 10:48:51;;;;;;;23.08;15.82;;;;;;;8.69;76.04;98523.25;10319017;28;20196;-51
2023/01/23 10:54:24;;;;;;;21.42;14.18;;;;;;;8.77;75.85;98532.03;10323631;28;20124;-49
2023/01/23 10:59:29;;;;;;;36.03;24.83;;;;;;;8.72;76.95;98523.31;10312825;28;20069;-50
2023/01/23 11:04:34;;;;;;;56.28;39.03;;;;;;;8.84;77.30;98531.31;10324937;28;20133;-48
2023/01/23 11:09:46;;;;;;;19.42;13.80;;;;;;;8.90;76.74;98527.94;10331130;28;20060;-48
2023/01/23 11:14:45;;;;;;;21.05;14.70;;;;;;;9.00;76.13;98523.81;10334436;28;20080;-48
2023/01/23 11:19:47;;;;;;;25.55;19.38;;;;;;;9.05;76.16;98527.34;10333048;28;20069;-48
2023/01/23 11:24:46;;;;;;;49.15;33.03;;;;;;;8.97;76.64;98536.69;10331677;28;20065;-50
2023/01/23 11:30:07;;;;;;;17.98;13.40;;;;;;;8.50;76.71;98538.44;10333839;28;20053;-48
2023/01/23 11:35:15;;;;;;;62.67;49.15;;;;;;;8.38;78.39;98548.50;10329626;28;20727;-48
2023/01/23 11:40:18;;;;;;;32.15;23.63;;;;;;;8.27;78.46;98544.81;10330613;28;20099;-50
2023/01/23 11:45:17;;;;;;;24.25;14.85;;;;;;;8.31;78.79;98538.88;10325266;28;20068;-50
2023/01/23 11:50:35;;;;;;;23.10;16.08;;;;;;;8.23;79.06;98546.50;10334552;28;20022;-49
2023/01/23 11:55:40;;;;;;;49.20;32.45;;;;;;;8.36;79.59;98544.16;10335227;28;20061;-49
2023/01/23 12:01:24;;;;;;;21.05;15.90;;;;;;;8.49;79.06;98552.19;10332935;28;20060;-49
2023/01/23 12:06:41;;;;;;;28.48;19.73;;;;;;;8.58;78.98;98550.66;10286581;28;20624;-49
2023/01/23 12:11:51;;;;;;;24.88;17.20;;;;;;;8.71;78.55;98547.44;10322860;28;20128;-50
2023/01/23 12:17:11;;;;;;;20.42;14.82;;;;;;;8.70;78.35;98546.56;10328127;28;20060;-51
2023/01/23 12:22:29;;;;;;;39.22;26.25;;;;;;;8.79;77.64;98545.00;10329518;28;20064;-49
2023/01/23 12:27:42;;;;;;;16.88;12.43;;;;;;;8.74;76.65;98552.69;10330120;28;20060;-49
2023/01/23 12:33:11;;;;;;;38.58;26.13;;;;;;;8.79;77.83;98560.53;10329515;28;20072;-49
2023/01/23 12:38:28;;;;;;;33.78;23.02;;;;;;;8.86;77.42;98560.69;10328935;28;20053;-50
2023/01/23 12:43:33;;;;;;;22.83;18.52;;;;;;;8.79;77.36;98568.31;10328621;28;20061;-50
2023/01/23 12:48:49;;;;;;;29.80;19.52;;;;;;;8.70;78.20;98566.41;10328252;28;20064;-48
2023/01/23 12:53:55;;;;;;;45.95;27.08;;;;;;;8.59;79.38;98544.63;10327809;28;20125;-48
2023/01/23 12:59:28;;;;;;;75.88;51.00;;;;;;;8.57;79.95;98560.09;10326885;28;20071;-47
2023/01/23 13:04:40;;;;;;;94.22;63.92;;;;;;;8.70;79.99;98561.22;10329055;28;20788;-48
2023/01/23 13:10:09;;;;;;;23.58;14.90;;;;;;;8.73;79.78;98550.91;10330435;28;20083;-49
2023/01/23 13:15:16;;;;;;;26.92;18.15;;;;;;;8.69;80.30;98567.22;10328943;28;20076;-50
2023/01/23 13:25:42;;;;;;;40.70;27.40;;;;;;;8.72;80.69;98569.91;10316611;28;20068;-49
2023/01/23 13:30:41;;;;;;;41.05;25.27;;;;;;;8.77;80.81;98569.97;10326177;28;20431;-49
2023/01/23 13:35:46;;;;;;;46.00;31.77;;;;;;;8.78;80.20;98575.16;10330447;28;20079;-48
2023/01/23 13:41:10;;;;;;;60.28;40.08;;;;;;;8.79;80.68;98576.06;10322053;28;20251;-50
2023/01/23 13:46:26;;;;;;;35.13;21.13;;;;;;;8.62;80.50;98578.28;10325536;28;20048;-48
2023/01/23 13:51:25;;;;;;;21.60;14.13;;;;;;;8.49;80.86;98583.22;10324616;28;20068;-50
2023/01/23 13:56:38;;;;;;;23.02;16.23;;;;;;;8.07;81.38;98522.03;10319942;28;20017;-47
2023/01/23 14:07:45;;;;;;;146.40;88.60;;;;;;;8.24;82.54;98581.84;10330424;28;20081;-49
2023/01/23 14:12:45;;;;;;;100.30;64.03;;;;;;;8.31;82.63;98593.19;10323377;28;20124;-50
2023/01/23 14:17:44;;;;;;;68.57;42.28;;;;;;;8.33;82.84;98583.75;10324454;28;20136;-49
2023/01/23 14:22:43;;;;;;;32.15;20.88;;;;;;;8.37;82.28;98588.16;10316523;28;20021;-51
2023/01/23 14:27:42;;;;;;;27.98;18.50;;;;;;;8.33;82.37;98596.69;10322252;28;20084;-48
2023/01/23 14:32:43;;;;;;;25.50;18.30;;;;;;;8.20;83.14;98599.84;10322920;28;20128;-48
2023/01/23 14:37:42;;;;;;;24.92;16.83;;;;;;;8.20;83.41;98602.41;10318228;28;20065;-49
2023/01/23 14:42:42;;;;;;;33.08;20.25;;;;;;;8.10;83.86;98606.50;10325462;28;20845;-50
2023/01/23 14:47:46;;;;;;;39.75;24.95;;;;;;;8.02;84.75;98606.34;10324229;28;20492;-51
2023/01/23 14:52:45;;;;;;;36.35;24.88;;;;;;;8.03;85.56;98607.22;10326100;28;20500;-49
2023/01/23 14:57:44;;;;;;;25.80;17.15;;;;;;;7.98;86.09;98614.00;10327401;28;20714;-48
2023/01/23 15:02:44;;;;;;;;;;;;;;;7.98;86.91;98624.34;10326086;28;20709;-49
2023/01/23 15:08:03;;;;;;;31.42;20.20;;;;;;;7.90;86.91;98631.91;10313931;28;20389;-50
2023/01/23 15:13:27;;;;;;;34.33;20.33;;;;;;;7.49;88.56;98607.66;10324185;28;20076;-49
2023/01/23 15:18:33;;;;;;;43.58;26.63;;;;;;;7.63;88.99;98638.16;10314655;28;20073;-50
2023/01/23 15:23:37;;;;;;;41.70;23.92;;;;;;;7.59;90.08;98646.69;10316693;28;20060;-48
2023/01/23 15:28:41;;;;;;;38.70;21.13;;;;;;;7.59;90.13;98651.84;10326839;28;20091;-50
2023/01/23 15:33:41;;;;;;;31.48;17.55;;;;;;;7.47;90.23;98651.50;10322797;28;20149;-48
2023/01/23 15:38:45;;;;;;;28.55;16.30;;;;;;;7.18;91.46;98654.19;10318350;28;20077;-50
2023/01/23 15:43:44;;;;;;;28.63;16.95;;;;;;;6.76;92.95;98620.34;10312765;28;20061;-50
2023/01/23 15:48:43;;;;;;;31.88;18.42;;;;;;;6.99;93.82;98660.53;10321206;28;20113;-48
2023/01/23 15:53:42;;;;;;;30.08;19.35;;;;;;;6.75;95.22;98658.16;10316938;28;20079;-50
2023/01/23 15:58:41;;;;;;;51.33;30.73;;;;;;;6.79;95.41;98672.88;10328638;28;20041;-49
2023/01/23 16:03:40;;;;;;;37.28;22.10;;;;;;;6.63;96.36;98673.25;10329758;28;20563;-48
2023/01/23 16:08:39;;;;;;;51.38;30.25;;;;;;;5.98;96.51;98582.84;10331348;28;20073;-47
2023/01/23 16:13:38;;;;;;;50.95;24.50;;;;;;;6.13;97.02;98621.94;10322972;28;20029;-48
2023/01/23 16:18:37;;;;;;;58.13;29.83;;;;;;;6.46;96.62;98677.06;10332044;28;20065;-49
2023/01/23 16:23:36;;;;;;;77.78;41.25;;;;;;;6.49;97.33;98674.56;10332589;28;20037;-47
2023/01/23 16:28:35;;;;;;;55.78;31.17;;;;;;;6.23;97.26;98692.69;10332540;28;20046;-48
2023/01/23 16:33:34;;;;;;;70.18;36.38;;;;;;;5.78;98.80;98641.44;10324189;28;20036;-47
2023/01/23 16:38:33;;;;;;;89.82;46.92;;;;;;;6.16;98.55;98701.94;10315615;28;20029;-48
2023/01/23 16:43:33;;;;;;;74.40;37.15;;;;;;;6.08;99.26;98705.09;10322709;28;20026;-49
2023/01/23 16:48:32;;;;;;;56.47;28.55;;;;;;;6.03;99.08;98710.09;10364382;28;20076;-48
2023/01/23 16:53:36;;;;;;;62.15;30.25;;;;;;;5.94;99.44;98720.97;10329990;28;20044;-50
2023/01/23 16:58:40;;;;;;;71.38;31.15;;;;;;;5.82;100.00;98725.72;10331772;28;20076;-48
2023/01/23 17:03:40;;;;;;;55.45;25.73;;;;;;;5.73;100.00;98730.56;10330292;28;20084;-47
2023/01/23 17:08:39;;;;;;;58.70;28.48;;;;;;;5.40;100.00;98723.44;10329647;28;20060;-50
2023/01/23 17:13:38;;;;;;;70.38;30.88;;;;;;;5.46;100.00;98731.38;10326699;28;20037;-49
2023/01/23 17:18:37;;;;;;;47.47;23.92;;;;;;;5.17;100.00;98729.47;10313437;28;20029;-50
2023/01/23 17:23:36;;;;;;;;;;;;;;;5.01;100.00;98735.75;10309619;28;20137;-51
2023/01/23 17:28:34;;;;;;;68.32;30.02;;;;;;;4.97;100.00;98749.31;10281833;28;19922;-48
2023/01/23 17:33:33;;;;;;;64.35;28.60;;;;;;;4.64;100.00;98745.50;10287563;28;20040;-49
2023/01/23 17:38:34;;;;;;;52.42;22.35;;;;;;;4.64;100.00;98760.03;10281807;28;20496;-48
2023/01/23 17:43:32;;;;;;;52.53;23.40;;;;;;;4.70;100.00;98761.16;10274625;28;20135;-48
2023/01/23 17:48:37;;;;;;;53.53;24.48;;;;;;;4.55;100.00;98755.44;10286713;28;20443;-51
2023/01/23 17:53:36;;;;;;;99.00;42.53;;;;;;;4.33;100.00;98724.56;10283984;28;20165;-50
2023/01/23 17:58:40;;;;;;;55.70;24.77;;;;;;;4.63;100.00;98766.00;10280991;28;20822;-49
2023/01/23 18:03:40;;;;;;;74.22;34.38;;;;;;;4.71;100.00;98756.88;10283344;28;20500;-48
2023/01/23 18:08:41;;;;;;;50.33;23.63;;;;;;;4.78;100.00;98768.28;10286124;28;20457;-49
2023/01/23 18:13:47;;;;;;;47.78;20.85;;;;;;;4.84;100.00;98774.53;10287358;28;20085;-48
2023/01/23 18:18:55;;;;;;;39.75;18.90;;;;;;;4.57;100.00;98758.03;10286720;28;20071;-48
2023/01/23 18:23:54;;;;;;;50.88;25.98;;;;;;;4.63;100.00;98778.84;10285340;28;20088;-49
2023/01/23 18:29:09;;;;;;;;;;;;;;;4.62;100.00;98797.66;10286268;28;20088;-48
2023/01/23 18:34:40;;;;;;;47.33;20.38;;;;;;;4.32;100.00;98792.19;10278096;28;20015;-49
2023/01/23 18:40:19;;;;;;;176.68;89.70;;;;;;;3.92;100.00;98673.31;10257461;28;20076;-50
2023/01/23 18:45:19;;;;;;;50.28;24.20;;;;;;;4.72;100.00;98808.38;10256887;28;20065;-50
2023/01/23 18:50:21;;;;;;;59.75;22.83;;;;;;;4.32;100.00;98830.75;10285874;28;20065;-62
2023/01/23 18:55:33;;;;;;;81.07;38.60;;;;;;;4.46;100.00;98821.91;10285327;28;20160;-48
2023/01/23 19:00:43;;;;;;;57.03;22.40;;;;;;;4.11;100.00;98821.31;10256345;28;20509;-48
2023/01/23 19:05:43;;;;;;;93.65;43.58;;;;;;;4.25;100.00;98838.19;10285707;28;20073;-49
2023/01/23 19:10:48;;;;;;;94.38;47.03;;;;;;;4.56;100.00;98826.59;10285434;28;20493;-49
2023/01/23 19:16:08;;;;;;;62.95;29.45;;;;;;;4.22;100.00;98821.75;10285036;28;20460;-48
2023/01/23 19:21:14;;;;;;;63.63;29.23;;;;;;;4.07;100.00;98832.28;10282148;28;20070;-51
2023/01/23 19:26:15;;;;;;;53.95;26.55;;;;;;;3.99;100.00;98820.81;10285359;28;20065;-48
2023/01/23 19:31:20;;;;;;;54.97;27.58;;;;;;;4.04;100.00;98822.75;10287121;28;20076;-48
2023/01/23 19:36:20;;;;;;;51.42;18.58;;;;;;;3.91;100.00;98832.44;10293798;28;20081;-48
2023/01/23 19:41:22;;;;;;;42.03;19.65;;;;;;;3.94;100.00;98830.91;10292615;28;20479;-48
2023/01/23 19:46:25;;;;;;;48.17;24.00;;;;;;;3.96;100.00;98831.81;10292114;28;20091;-50
2023/01/23 19:51:25;;;;;;;49.42;25.15;;;;;;;4.07;100.00;98833.16;10291635;28;20499;-48
2023/01/23 19:56:24;;;;;;;56.60;26.98;;;;;;;4.32;100.00;98839.31;10292378;28;20069;-49
2023/01/23 20:01:40;;;;;;;34.03;18.30;;;;;;;4.34;100.00;98836.78;10291638;28;20080;-50
2023/01/23 20:06:39;;;;;;;45.25;24.23;;;;;;;4.19;100.00;98816.50;10290213;28;20062;-49
2023/01/23 20:11:38;;;;;;;34.33;12.93;;;;;;;3.30;99.86;98704.94;10292891;28;20089;-48
2023/01/23 20:16:39;;;;;;;;;;;;;;;3.81;100.00;98854.28;10291842;28;20069;-50
2023/01/23 20:21:38;;;;;;;51.10;22.60;;;;;;;3.63;100.00;98856.91;10291509;28;19955;-49
2023/01/23 20:26:38;;;;;;;52.85;27.35;;;;;;;3.54;100.00;98872.81;10290898;28;20033;-49
2023/01/23 20:31:37;;;;;;;184.18;81.57;;;;;;;3.70;100.00;98863.22;10290376;28;20129;-49
2023/01/23 20:36:36;;;;;;;131.98;67.38;;;;;;;3.91;100.00;98881.22;10292319;28;20044;-51
2023/01/23 20:41:35;;;;;;;34.08;15.68;;;;;;;3.70;100.00;98871.78;10289297;28;20497;-49
2023/01/23 20:46:34;;;;;;;45.75;24.52;;;;;;;3.70;100.00;98876.03;10284772;28;20464;-48
2023/01/23 20:51:33;;;;;;;52.20;24.05;;;;;;;3.32;100.00;98883.78;10264952;28;20034;-48
2023/01/23 20:56:32;;;;;;;37.40;15.70;;;;;;;3.27;100.00;98897.22;10271126;28;20105;-48
2023/01/23 21:06:53;;;;;;;35.50;14.98;;;;;;;2.91;100.00;98910.03;10287575;28;20724;-49
2023/01/23 21:11:53;;;;;;;49.65;27.20;;;;;;;2.94;100.00;98900.81;10286557;28;20506;-49
2023/01/23 21:16:52;;;;;;;44.83;22.70;;;;;;;3.00;100.00;98915.63;10284923;28;20072;-49
2023/01/23 21:21:51;;;;;;;35.72;16.42;;;;;;;2.80;100.00;98904.41;10286658;28;20091;-48
2023/01/23 21:26:51;;;;;;;54.35;24.45;;;;;;;2.17;100.00;98774.16;10286887;28;20065;-49
2023/01/23 21:31:50;;;;;;;48.63;21.77;;;;;;;2.94;100.00;98921.34;10283320;28;20125;-51
2023/01/23 21:36:49;;;;;;;58.78;29.88;;;;;;;2.89;100.00;98892.03;10287438;28;20524;-49
2023/01/23 21:41:48;;;;;;;37.72;18.70;;;;;;;3.26;100.00;98923.66;10283150;28;20113;-50
2023/01/23 21:46:48;;;;;;;42.22;20.60;;;;;;;3.22;100.00;98913.25;10286475;28;20036;-49
2023/01/23 21:51:47;;;;;;;39.15;17.27;;;;;;;3.08;100.00;98922.00;10285166;28;20124;-51
2023/01/23 21:56:45;;;;;;;43.63;20.02;;;;;;;3.22;100.00;98912.38;10285346;28;20084;-50
2023/01/23 22:01:45;;;;;;;39.28;22.05;;;;;;;3.28;100.00;98917.78;10285261;28;20505;-48
2023/01/23 22:06:45;;;;;;;29.05;12.38;;;;;;;3.29;100.00;98916.13;10285304;28;20121;-50
2023/01/23 22:11:45;;;;;;;34.33;15.88;;;;;;;3.22;100.00;98915.81;10279544;28;20144;-50
2023/01/23 22:16:44;;;;;;;29.35;14.15;;;;;;;2.99;100.00;98857.47;10284371;28;20145;-50
2023/01/23 22:21:45;;;;;;;26.55;13.32;;;;;;;2.99;100.00;98873.72;10282206;28;20488;-50
2023/01/23 22:26:44;;;;;;;30.77;14.13;;;;;;;3.12;100.00;98905.06;10267401;28;20109;-49
2023/01/23 22:31:42;;;;;;;26.60;11.93;;;;;;;3.04;100.00;98919.22;10285907;28;20124;-48
2023/01/23 22:36:41;;;;;;;38.63;16.63;;;;;;;3.04;100.00;98914.97;10286110;28;20042;-49
2023/01/23 22:41:43;;;;;;;31.05;13.95;;;;;;;2.69;100.00;98874.81;10285001;28;20030;-49
2023/01/23 22:46:43;;;;;;;35.47;15.63;;;;;;;2.95;100.00;98923.09;10285809;28;20064;-51
2023/01/23 22:51:42;;;;;;;26.77;11.88;;;;;;;2.92;100.00;98922.06;10285985;28;20168;-46
2023/01/23 22:56:42;;;;;;;26.13;11.85;;;;;;;2.72;100.00;98923.66;10282763;28;20101;-46
2023/01/23 23:01:41;;;;;;;29.98;11.98;;;;;;;2.48;100.00;98898.59;10279193;28;20070;-46
2023/01/23 23:06:40;;;;;;;24.95;12.07;;;;;;;2.45;100.00;98921.50;10283518;28;20044;-47
2023/01/23 23:11:39;;;;;;;20.42;9.77;;;;;;;2.37;100.00;98926.25;10280881;28;20060;-49
2023/01/23 23:16:39;;;;;;;24.92;10.98;;;;;;;2.29;100.00;98929.22;10282045;28;20085;-49
2023/01/23 23:21:38;;;;;;;20.77;9.80;;;;;;;2.28;100.00;98930.91;10280224;28;20087;-49
2023/01/23 23:26:37;;;;;;;;;;;;;;;2.32;100.00;98932.81;10281828;28;20117;-48
2023/01/23 23:31:36;;;;;;;25.90;12.15;;;;;;;2.32;100.00;98932.81;10281330;28;19929;-51
2023/01/23 23:36:35;;;;;;;22.95;10.95;;;;;;;2.41;100.00;98945.22;10283728;28;20076;-49